createdAt,value
2019-01-16T00:00:06.220Z,7.80
2019-01-16T00:02:54.365Z,7.67
2019-01-16T00:05:42.760Z,6.70
2019-01-16T00:08:26.363Z,6.97
2019-01-16T00:11:13.723Z,7.70
2019-01-16T00:14:08.044Z,7.58
2019-01-16T00:17:08.560Z,7.93
2019-01-16T00:20:05.567Z,8.10
2019-01-16T00:22:53.680Z,7.63
2019-01-16T00:25:44.252Z,9.03
2019-01-16T00:28:32.367Z,9.10
2019-01-16T00:31:13.815Z,8.60
2019-01-16T00:34:08.676Z,9.43
2019-01-16T00:37:06.444Z,9.93
2019-01-16T00:39:54.992Z,9.43
2019-01-16T00:42:41.831Z,9.20
2019-01-16T00:45:28.715Z,9.20
2019-01-16T00:48:15.520Z,9.53
2019-01-16T00:51:06.814Z,9.40
2019-01-16T00:54:07.280Z,9.27
2019-01-16T00:56:58.291Z,10.37
2019-01-16T01:00:04.748Z,9.87
2019-01-16T01:02:52.949Z,9.90
2019-01-16T01:05:40.746Z,9.67
2019-01-16T01:08:38.282Z,9.90
2019-01-16T01:11:25.139Z,9.23
2019-01-16T01:14:19.564Z,8.90
2019-01-16T01:17:08.866Z,9.13
2019-01-16T01:19:55.899Z,8.50
2019-01-16T01:22:37.121Z,9.00
2019-01-16T01:25:43.746Z,8.40
2019-01-16T01:28:27.227Z,8.60
2019-01-16T01:31:04.504Z,8.87
2019-01-16T01:33:52.404Z,7.80
2019-01-16T01:36:39.868Z,8.43
2019-01-16T01:39:27.460Z,7.97
2019-01-16T01:42:15.917Z,8.67
2019-01-16T01:45:01.413Z,8.87
2019-01-16T01:47:39.184Z,8.80
2019-01-16T01:50:26.599Z,7.43
2019-01-16T01:53:28.104Z,7.97
2019-01-16T01:56:16.276Z,7.70
2019-01-16T01:58:54.724Z,8.50
2019-01-16T02:01:48.343Z,7.73
2019-01-16T02:04:35.060Z,7.70
2019-01-16T02:07:23.231Z,7.57
2019-01-16T02:10:23.408Z,7.20
2019-01-16T02:13:10.509Z,7.03
2019-01-16T02:16:08.124Z,7.40
2019-01-16T02:18:54.829Z,7.50
2019-01-16T02:21:35.981Z,6.87
2019-01-16T02:24:33.180Z,7.57
2019-01-16T02:27:21.879Z,7.37
2019-01-16T02:30:25.820Z,7.27
2019-01-16T02:33:12.924Z,7.07
2019-01-16T02:36:07.411Z,6.77
2019-01-16T02:38:58.432Z,7.30
2019-01-16T02:41:58.941Z,6.70
2019-01-16T02:48:08.260Z,6.77
2019-01-16T02:50:56.541Z,6.83
2019-01-16T02:53:51.865Z,6.70
2019-01-16T02:56:40.416Z,6.20
2019-01-16T02:59:22.551Z,6.73
2019-01-16T03:02:09.681Z,6.05
2019-01-16T03:05:07.726Z,6.50
2019-01-16T03:07:51.429Z,6.47
2019-01-16T03:10:35.244Z,7.30
2019-01-16T03:13:16.584Z,7.87
2019-01-16T03:16:03.973Z,6.85
2019-01-16T03:18:55.205Z,7.43
2019-01-16T03:21:43.452Z,8.00
2019-01-16T03:24:23.540Z,8.93
2019-01-16T03:27:20.584Z,8.50
2019-01-16T03:30:07.718Z,8.27
2019-01-16T03:32:57.378Z,8.40
2019-01-16T03:36:03.789Z,7.20
2019-01-16T03:38:42.545Z,7.53
2019-01-16T03:41:35.644Z,7.20
2019-01-16T03:44:23.246Z,7.27
2019-01-16T03:47:10.288Z,7.03
2019-01-16T03:49:57.633Z,7.13
2019-01-16T03:52:44.774Z,7.67
2019-01-16T03:55:44.800Z,7.93
2019-01-16T03:58:28.397Z,7.27
2019-01-16T04:01:15.255Z,7.80
2019-01-16T04:04:02.579Z,7.07
2019-01-16T04:06:54.526Z,8.93
2019-01-16T04:09:48.856Z,9.05
2019-01-16T04:12:49.332Z,9.43
2019-01-16T04:15:41.737Z,8.57
2019-01-16T04:18:36.584Z,9.27
2019-01-16T04:21:22.139Z,9.27
2019-01-16T04:24:08.976Z,9.43
2019-01-16T04:26:58.413Z,8.83
2019-01-16T04:29:45.075Z,7.97
2019-01-16T04:32:32.052Z,7.83
2019-01-16T04:35:26.419Z,7.62
2019-01-16T04:38:08.796Z,7.78
2019-01-16T04:41:06.621Z,7.60
2019-01-16T04:43:58.137Z,6.90
2019-01-16T04:46:45.369Z,6.73
2019-01-16T04:49:39.292Z,6.97
2019-01-16T04:52:26.313Z,6.53
2019-01-16T04:55:07.529Z,6.80
2019-01-16T04:58:08.133Z,6.62
2019-01-16T05:01:08.272Z,5.97
2019-01-16T05:03:59.796Z,6.17
2019-01-16T05:06:46.943Z,6.57
2019-01-16T05:09:47.525Z,5.77
2019-01-16T05:12:53.850Z,6.00
2019-01-16T05:15:41.389Z,6.10
2019-01-16T05:18:35.693Z,6.17
2019-01-16T05:21:22.670Z,6.20
2019-01-16T05:24:16.268Z,5.28
2019-01-16T05:27:17.824Z,5.90
2019-01-16T05:30:15.021Z,5.43
2019-01-16T05:33:04.429Z,6.30
2019-01-16T05:36:01.759Z,5.60
2019-01-16T05:39:00.524Z,5.33
2019-01-16T05:41:50.877Z,5.47
2019-01-16T05:44:38.407Z,5.50
2019-01-16T05:47:25.368Z,6.23
2019-01-16T05:50:02.908Z,5.80
2019-01-16T05:53:00.397Z,5.13
2019-01-16T05:55:41.985Z,5.37
2019-01-16T05:58:48.781Z,4.97
2019-01-16T06:01:38.772Z,5.37
2019-01-16T06:04:39.565Z,5.23
2019-01-16T06:07:16.843Z,5.40
2019-01-16T06:10:14.305Z,5.03
2019-01-16T06:13:17.645Z,5.03
2019-01-16T06:15:53.012Z,4.70
2019-01-16T06:18:50.428Z,4.90
2019-01-16T06:21:41.537Z,4.77
2019-01-16T06:24:34.205Z,5.00
2019-01-16T06:27:19.656Z,4.87
2019-01-16T06:30:09.445Z,5.70
2019-01-16T06:32:53.598Z,5.40
2019-01-16T06:35:44.870Z,4.90
2019-01-16T06:38:30.905Z,4.80
2019-01-16T06:41:13.230Z,4.45
2019-01-16T06:43:50.952Z,4.77
2019-01-16T06:46:41.856Z,4.77
2019-01-16T06:49:28.944Z,4.57
2019-01-16T06:52:13.204Z,4.53
2019-01-16T06:55:07.242Z,4.50
2019-01-16T06:57:53.469Z,4.85
2019-01-16T07:00:36.485Z,4.10
2019-01-16T07:03:43.165Z,5.20
2019-01-16T07:06:37.700Z,4.40
2019-01-16T07:09:28.948Z,4.37
2019-01-16T07:12:19.460Z,4.57
2019-01-16T07:15:05.949Z,4.57
2019-01-16T07:17:57.504Z,4.67
2019-01-16T07:20:38.969Z,4.37
2019-01-16T07:23:33.181Z,3.98
2019-01-16T07:26:20.196Z,4.60
2019-01-16T07:29:06.914Z,4.90
2019-01-16T07:31:58.151Z,3.97
2019-01-16T07:34:45.469Z,4.23
2019-01-16T07:37:24.746Z,4.93
2019-01-16T07:40:27.996Z,4.23
2019-01-16T07:43:09.973Z,4.90
2019-01-16T07:45:47.635Z,4.80
2019-01-16T07:48:36.205Z,4.40
2019-01-16T07:51:23.592Z,4.58
2019-01-16T07:54:12.081Z,3.87
2019-01-16T07:57:02.400Z,4.28
2019-01-16T08:00:09.071Z,4.47
2019-01-16T08:03:08.617Z,5.40
2019-01-16T08:05:55.648Z,4.47
2019-01-16T08:08:50.184Z,3.70
2019-01-16T08:11:37.285Z,3.65
2019-01-16T08:14:29.016Z,4.45
2019-01-16T08:17:19.044Z,4.28
2019-01-16T08:20:06.017Z,4.23
2019-01-16T08:23:00.429Z,4.50
2019-01-16T08:25:51.303Z,4.62
2019-01-16T08:28:49.089Z,5.00
2019-01-16T08:31:43.156Z,4.80
2019-01-16T08:34:39.968Z,5.58
2019-01-16T08:37:37.436Z,5.83
2019-01-16T08:40:25.191Z,5.83
2019-01-16T08:43:03.154Z,6.30
2019-01-16T08:45:46.368Z,6.50
2019-01-16T08:48:35.612Z,7.77
2019-01-16T08:51:35.963Z,7.23
2019-01-16T08:54:22.791Z,8.33
2019-01-16T08:57:09.708Z,8.27
2019-01-16T09:00:10.230Z,9.60
2019-01-16T09:03:10.767Z,8.85
2019-01-16T09:05:58.252Z,9.97
2019-01-16T09:08:46.917Z,10.07
2019-01-16T09:11:34.544Z,9.63
2019-01-16T09:14:25.437Z,10.50
2019-01-16T09:17:12.592Z,11.50
2019-01-16T09:19:54.962Z,11.43
2019-01-16T09:22:50.737Z,10.70
2019-01-16T09:25:32.280Z,11.27
2019-01-16T09:28:32.892Z,11.27
2019-01-16T09:31:20.371Z,18.53
2019-01-16T09:34:08.492Z,11.10
2019-01-16T09:37:09.231Z,10.53
2019-01-16T09:39:57.460Z,10.98
2019-01-16T09:42:48.479Z,10.43
2019-01-16T09:45:35.540Z,10.67
2019-01-16T09:48:12.720Z,9.00
2019-01-16T09:51:00.912Z,9.15
2019-01-16T09:53:48.154Z,8.33
2019-01-16T09:56:50.868Z,7.80
2019-01-16T09:59:37.921Z,7.03
2019-01-16T10:02:27.017Z,6.30
2019-01-16T10:05:18.057Z,6.50
2019-01-16T10:07:53.872Z,6.90
2019-01-16T10:10:34.634Z,6.47
2019-01-16T10:13:41.202Z,6.92
2019-01-16T10:16:29.489Z,7.17
2019-01-16T10:19:16.796Z,6.87
2019-01-16T10:21:58.909Z,6.30
2019-01-16T10:24:50.724Z,6.63
2019-01-16T10:27:37.623Z,7.87
2019-01-16T10:30:27.885Z,6.40
2019-01-16T10:33:25.412Z,7.00
2019-01-16T10:36:10.996Z,6.17
2019-01-16T10:38:59.217Z,6.12
2019-01-16T10:41:49.763Z,6.43
2019-01-16T10:44:41.016Z,6.62
2019-01-16T10:47:34.757Z,6.87
2019-01-16T10:50:23.389Z,5.93
2019-01-16T10:53:10.285Z,6.20
2019-01-16T10:55:57.556Z,6.17
2019-01-16T10:58:43.421Z,5.80
2019-01-16T11:01:37.520Z,7.22
2019-01-16T11:04:24.646Z,6.45
2019-01-16T11:07:19.017Z,5.73
2019-01-16T11:10:05.885Z,5.87
2019-01-16T11:12:53.036Z,6.00
2019-01-16T11:15:31.172Z,5.53
2019-01-16T11:18:37.820Z,5.80
2019-01-16T11:21:33.720Z,6.00
2019-01-16T11:24:23.038Z,6.47
2019-01-16T11:27:19.919Z,6.90
2019-01-16T11:30:06.897Z,6.17
2019-01-16T11:33:10.672Z,6.30
2019-01-16T11:36:07.656Z,6.65
2019-01-16T11:38:55.351Z,6.40
2019-01-16T11:41:41.526Z,6.70
2019-01-16T11:44:47.920Z,7.93
2019-01-16T11:47:48.108Z,7.30
2019-01-16T11:50:36.701Z,7.30
2019-01-16T11:53:24.421Z,6.57
2019-01-16T11:56:18.560Z,7.90
2019-01-16T11:59:05.509Z,7.47
2019-01-16T12:01:50.336Z,7.17
2019-01-16T12:04:31.300Z,6.77
2019-01-16T12:07:22.404Z,6.63
2019-01-16T12:10:03.657Z,6.63
2019-01-16T12:12:55.428Z,6.95
2019-01-16T12:15:46.417Z,6.80
2019-01-16T12:18:33.916Z,5.42
2019-01-16T12:21:26.115Z,5.90
2019-01-16T12:24:08.464Z,6.03
2019-01-16T12:27:05.729Z,5.20
2019-01-16T12:29:52.836Z,4.77
2019-01-16T12:32:35.844Z,4.60
2019-01-16T12:35:30.649Z,5.40
2019-01-16T12:38:27.929Z,4.70
2019-01-16T12:41:05.408Z,4.40
2019-01-16T12:44:01.447Z,5.40
2019-01-16T12:46:48.763Z,4.90
2019-01-16T12:49:45.444Z,5.33
2019-01-16T12:52:45.734Z,4.87
2019-01-16T12:55:36.725Z,5.07
2019-01-16T12:58:24.825Z,5.50
2019-01-16T13:01:17.179Z,5.90
2019-01-16T13:04:04.392Z,5.57
2019-01-16T13:06:52.731Z,6.00
2019-01-16T13:09:47.072Z,5.60
2019-01-16T13:29:51.001Z,5.20
2019-01-16T13:32:38.080Z,5.70
2019-01-16T13:35:20.972Z,4.83
2019-01-16T13:38:18.492Z,5.23
2019-01-16T13:41:09.940Z,5.37
2019-01-16T13:43:58.333Z,5.00
2019-01-16T13:47:02.038Z,4.90
2019-01-16T13:49:53.344Z,5.20
2019-01-16T13:52:40.297Z,8.10
2019-01-16T13:55:27.627Z,6.35
2019-01-16T13:58:10.743Z,5.40
2019-01-16T14:00:53.309Z,5.00
2019-01-16T14:03:40.096Z,5.53
2019-01-16T14:06:26.948Z,5.20
2019-01-16T14:09:13.856Z,4.63
2019-01-16T14:12:08.406Z,4.60
2019-01-16T14:15:00.343Z,5.62
2019-01-16T14:17:55.429Z,4.53
2019-01-16T14:20:49.721Z,5.30
2019-01-16T14:23:43.531Z,5.10
2019-01-16T14:26:25.353Z,5.53
2019-01-16T14:29:13.513Z,6.10
2019-01-16T14:32:17.373Z,5.47
2019-01-16T14:35:04.400Z,5.08
2019-01-16T14:38:01.664Z,5.40
2019-01-16T14:41:02.275Z,5.17
2019-01-16T14:43:52.171Z,4.23
2019-01-16T14:46:31.884Z,4.43
2019-01-16T14:49:20.844Z,5.15
2019-01-16T14:51:59.705Z,4.43
2019-01-16T14:54:46.736Z,4.83
2019-01-16T14:57:37.647Z,4.37
2019-01-16T15:00:27.173Z,4.70
2019-01-16T15:03:18.392Z,4.33
2019-01-16T15:05:58.742Z,4.58
2019-01-16T15:08:46.423Z,4.17
2019-01-16T15:11:36.473Z,5.22
2019-01-16T15:14:20.549Z,4.93
2019-01-16T15:17:03.086Z,4.50
2019-01-16T15:19:46.872Z,4.70
2019-01-16T15:22:35.876Z,4.70
2019-01-16T15:25:23.517Z,5.20
2019-01-16T15:28:03.305Z,5.20
2019-01-16T15:31:10.496Z,4.62
2019-01-16T15:33:57.557Z,4.33
2019-01-16T15:36:51.511Z,4.93
2019-01-16T15:39:49.052Z,4.60
2019-01-16T15:42:36.066Z,5.00
2019-01-16T15:45:19.173Z,4.60
2019-01-16T15:48:04.484Z,4.97
2019-01-16T15:51:01.006Z,4.90
2019-01-16T15:53:58.738Z,5.73
2019-01-16T15:56:49.325Z,5.30
2019-01-16T15:59:23.948Z,5.13
2019-01-16T16:02:24.251Z,5.40
2019-01-16T16:05:10.957Z,6.30
2019-01-16T16:07:54.743Z,6.30
2019-01-16T16:10:42.733Z,5.60
2019-01-16T16:13:29.256Z,6.30
2019-01-16T16:16:14.777Z,6.60
2019-01-16T16:19:09.193Z,6.30
2019-01-16T16:21:54.117Z,6.80
2019-01-16T16:24:49.216Z,6.40
2019-01-16T16:27:36.004Z,6.20
2019-01-16T16:30:22.736Z,6.23
2019-01-16T16:32:59.376Z,6.28
2019-01-16T16:35:59.824Z,5.70
2019-01-16T16:38:50.404Z,5.80
2019-01-16T16:41:43.260Z,6.05
2019-01-16T16:44:26.825Z,5.53
2019-01-16T16:47:14.980Z,5.53
2019-01-16T16:50:18.945Z,5.40
2019-01-16T16:53:25.068Z,5.50
2019-01-16T16:56:11.924Z,5.43
2019-01-16T16:58:59.060Z,5.95
2019-01-16T17:01:45.898Z,5.93
2019-01-16T17:04:33.074Z,5.80
2019-01-16T17:07:33.192Z,5.77
2019-01-16T17:10:11.312Z,5.03
2019-01-16T17:13:00.800Z,5.60
2019-01-16T17:15:46.341Z,5.57
2019-01-16T17:18:39.503Z,5.50
2019-01-16T17:21:23.510Z,6.03
2019-01-16T17:24:14.713Z,6.22
2019-01-16T17:27:06.004Z,5.53
2019-01-16T17:29:52.941Z,5.60
2019-01-16T17:32:40.298Z,5.43
2019-01-16T17:35:23.416Z,5.47
2019-01-16T17:38:13.541Z,5.07
2019-01-16T17:41:00.704Z,5.47
2019-01-16T17:43:52.010Z,5.60
2019-01-16T17:46:42.793Z,5.67
2019-01-16T17:49:30.984Z,6.07
2019-01-16T17:52:22.505Z,6.30
2019-01-16T17:55:20.425Z,8.67
2019-01-16T17:58:07.356Z,6.60
2019-01-16T18:00:55.584Z,8.00
2019-01-16T18:03:56.381Z,7.87
2019-01-16T18:06:50.877Z,7.80
2019-01-16T18:09:47.961Z,7.25
2019-01-16T18:12:44.809Z,7.60
2019-01-16T18:15:31.612Z,6.47
2019-01-16T18:18:18.688Z,6.37
2019-01-16T18:21:21.810Z,6.33
2019-01-16T18:24:08.494Z,5.93
2019-01-16T18:26:55.057Z,5.60
2019-01-16T18:29:43.817Z,5.93
2019-01-16T18:32:35.823Z,5.93
2019-01-16T18:35:24.561Z,6.13
2019-01-16T18:38:07.540Z,6.10
2019-01-16T18:40:54.405Z,5.30
2019-01-16T18:43:42.800Z,5.63
2019-01-16T18:46:30.972Z,5.67
2019-01-16T18:49:05.968Z,6.07
2019-01-16T18:52:01.725Z,5.50
2019-01-16T18:54:47.461Z,5.20
2019-01-16T18:57:44.465Z,5.30
2019-01-16T19:00:36.382Z,5.17
2019-01-16T19:03:23.202Z,6.37
2019-01-16T19:06:10.021Z,6.87
2019-01-16T19:08:55.226Z,6.80
2019-01-16T19:11:49.575Z,8.37
2019-01-16T19:14:31.592Z,7.10
2019-01-16T19:17:23.736Z,7.57
2019-01-16T19:20:10.932Z,6.33
2019-01-16T19:22:58.825Z,7.57
2019-01-16T19:25:40.413Z,7.53
2019-01-16T19:28:24.134Z,6.60
2019-01-16T19:31:24.540Z,6.45
2019-01-16T19:34:13.042Z,6.60
2019-01-16T19:37:05.152Z,7.50
2019-01-16T19:39:53.000Z,6.50
2019-01-16T19:42:45.361Z,7.37
2019-01-16T19:45:39.576Z,7.83
2019-01-16T19:48:42.757Z,8.20
2019-01-16T19:51:46.604Z,7.43
2019-01-16T19:54:50.348Z,8.50
2019-01-16T19:57:37.453Z,8.30
2019-01-16T20:00:28.341Z,8.50
2019-01-16T20:03:26.780Z,8.37
2019-01-16T20:06:17.920Z,8.60
2019-01-16T20:09:15.189Z,10.23
2019-01-16T20:12:30.264Z,9.13
2019-01-16T20:15:10.321Z,10.53
2019-01-16T20:18:10.300Z,9.63
2019-01-16T20:21:10.404Z,8.80
2019-01-16T20:23:56.985Z,9.50
2019-01-16T20:26:53.349Z,9.50
2019-01-16T20:29:38.619Z,8.07
2019-01-16T20:32:24.273Z,10.30
2019-01-16T20:35:10.041Z,12.07
2019-01-16T20:37:56.304Z,9.93
2019-01-16T20:40:47.309Z,11.50
2019-01-16T20:43:35.461Z,10.50
2019-01-16T20:46:38.805Z,10.90
2019-01-16T20:49:42.408Z,10.67
2019-01-16T20:52:36.836Z,10.67
2019-01-16T20:55:24.581Z,9.50
2019-01-16T20:58:17.401Z,9.03
2019-01-16T21:01:05.616Z,9.37
2019-01-16T21:03:52.577Z,10.43
2019-01-16T21:06:39.908Z,10.37
2019-01-16T21:09:34.301Z,9.40
2019-01-16T21:12:25.584Z,9.47
2019-01-16T21:15:14.035Z,10.57
2019-01-16T21:18:14.428Z,9.87
2019-01-16T21:21:08.602Z,9.80
2019-01-16T21:23:49.275Z,9.63
2019-01-16T21:26:29.525Z,8.97
2019-01-16T21:29:08.178Z,10.43
2019-01-16T21:31:55.324Z,9.07
2019-01-16T21:34:46.492Z,7.57
2019-01-16T21:37:23.451Z,7.40
2019-01-16T21:40:04.224Z,7.40
2019-01-16T21:42:51.032Z,6.70
2019-01-16T21:45:39.701Z,6.77
2019-01-16T21:48:29.223Z,6.80
2019-01-16T21:51:20.141Z,6.93
2019-01-16T21:54:13.196Z,6.40
2019-01-16T21:57:09.311Z,6.43
2019-01-16T21:59:57.539Z,6.03
2019-01-16T22:02:44.182Z,6.00
2019-01-16T22:05:39.084Z,6.30
2019-01-16T22:08:26.285Z,6.27
2019-01-16T22:11:07.339Z,5.67
2019-01-16T22:13:43.371Z,6.23
2019-01-16T22:16:34.673Z,5.97
2019-01-16T22:19:25.855Z,6.23
2019-01-16T22:22:13.985Z,6.30
2019-01-16T22:25:02.198Z,6.83
2019-01-16T22:28:02.781Z,5.83
2019-01-16T22:30:44.476Z,6.20
2019-01-16T22:33:31.396Z,6.53
2019-01-16T22:36:37.978Z,6.47
2019-01-16T22:39:25.397Z,6.13
2019-01-16T22:42:08.988Z,8.30
2019-01-16T22:44:57.824Z,7.53
2019-01-16T22:47:45.036Z,8.23
2019-01-16T22:50:26.136Z,7.93
2019-01-16T22:53:12.956Z,9.47
2019-01-16T22:56:04.719Z,12.03
2019-01-16T22:58:43.497Z,10.53
2019-01-16T23:01:31.110Z,10.50
2019-01-16T23:04:25.652Z,11.40
2019-01-16T23:07:20.324Z,9.83
2019-01-16T23:10:00.472Z,8.93
2019-01-16T23:12:47.773Z,11.47
2019-01-16T23:15:42.452Z,11.07
2019-01-16T23:18:38.084Z,11.70
2019-01-16T23:21:24.981Z,10.27
2019-01-16T23:24:04.755Z,10.07
2019-01-16T23:26:59.108Z,9.20
2019-01-16T23:29:50.163Z,12.60
2019-01-16T23:32:39.764Z,9.87
2019-01-16T23:35:26.649Z,10.97
2019-01-16T23:38:14.758Z,10.50
2019-01-16T23:41:08.827Z,9.47
2019-01-16T23:43:47.208Z,8.33
2019-01-16T23:46:34.105Z,7.63
2019-01-16T23:49:40.798Z,8.27
2019-01-16T23:52:27.460Z,7.30
2019-01-16T23:55:11.112Z,8.03
2019-01-16T23:57:52.993Z,8.33
